createdAt,value
2022-08-10T00:00:46.645Z,18.00
2022-08-10T00:03:21.604Z,17.90
2022-08-10T00:05:57.968Z,17.80
2022-08-10T00:08:32.600Z,17.80
2022-08-10T00:11:15.415Z,17.70
2022-08-10T00:13:52.155Z,17.70
2022-08-10T00:16:26.155Z,17.70
2022-08-10T00:19:01.134Z,17.60
2022-08-10T00:21:35.403Z,17.60
2022-08-10T00:24:11.423Z,17.60
2022-08-10T00:27:58.568Z,17.60
2022-08-10T00:29:39.363Z,17.60
2022-08-10T00:32:14.503Z,17.60
2022-08-10T00:34:50.130Z,17.60
2022-08-10T00:37:24.341Z,17.50
2022-08-10T00:39:59.637Z,17.50
2022-08-10T00:42:36.949Z,17.50
2022-08-10T00:45:12.537Z,17.40
2022-08-10T00:47:47.893Z,17.40
2022-08-10T00:50:22.587Z,17.30
2022-08-10T00:52:57.180Z,17.30
2022-08-10T00:57:14.300Z,17.30
2022-08-10T00:58:32.847Z,17.20
2022-08-10T01:01:11.679Z,17.10
2022-08-10T01:04:39.826Z,17.10
2022-08-10T01:07:09.761Z,17.00
2022-08-10T01:09:55.804Z,17.00
2022-08-10T01:12:47.134Z,16.90
2022-08-10T01:15:28.315Z,16.90
2022-08-10T01:18:05.916Z,16.80
2022-08-10T01:20:36.351Z,16.80
2022-08-10T01:23:37.379Z,16.70
2022-08-10T01:26:32.012Z,16.70
2022-08-10T01:29:33.211Z,16.70
2022-08-10T01:32:08.907Z,16.60
2022-08-10T01:34:45.257Z,16.60
2022-08-10T01:37:20.432Z,16.50
2022-08-10T01:39:55.406Z,16.50
2022-08-10T01:42:30.573Z,16.40
2022-08-10T01:45:09.392Z,16.40
2022-08-10T01:47:59.605Z,16.40
2022-08-10T01:50:58.976Z,16.30
2022-08-10T01:53:41.373Z,16.30
2022-08-10T01:56:17.001Z,16.20
2022-08-10T01:58:53.257Z,16.20
2022-08-10T02:01:31.674Z,16.20
2022-08-10T02:04:08.549Z,16.20
2022-08-10T02:06:46.933Z,16.10
2022-08-10T02:09:17.400Z,16.10
2022-08-10T02:12:07.735Z,16.10
2022-08-10T02:14:45.104Z,16.00
2022-08-10T02:17:59.260Z,16.00
2022-08-10T02:20:20.091Z,15.90
2022-08-10T02:22:56.582Z,15.90
2022-08-10T02:25:41.067Z,15.80
2022-08-10T02:28:27.212Z,15.80
2022-08-10T02:31:07.027Z,15.80
2022-08-10T02:33:57.233Z,15.80
2022-08-10T02:36:33.083Z,15.70
2022-08-10T02:39:08.626Z,15.70
2022-08-10T02:45:02.221Z,15.60
2022-08-10T02:45:24.706Z,15.60
2022-08-10T02:47:52.131Z,15.60
2022-08-10T02:50:32.315Z,15.40
2022-08-10T02:53:08.022Z,15.40
2022-08-10T02:56:08.501Z,15.40
2022-08-10T02:58:42.458Z,15.30
2022-08-10T03:01:20.284Z,15.30
2022-08-10T03:03:57.579Z,15.30
2022-08-10T03:06:38.081Z,15.30
2022-08-10T03:09:15.109Z,15.30
2022-08-10T03:12:35.315Z,15.20
2022-08-10T03:14:42.649Z,15.20
2022-08-10T03:17:17.849Z,15.20
2022-08-10T03:20:34.465Z,15.20
2022-08-10T03:22:48.646Z,15.10
2022-08-10T03:25:26.991Z,15.00
2022-08-10T03:28:01.951Z,15.00
2022-08-10T03:30:36.764Z,15.00
2022-08-10T03:33:11.832Z,15.00
2022-08-10T03:36:43.889Z,15.00
2022-08-10T03:38:40.925Z,14.90
2022-08-10T03:41:18.546Z,14.90
2022-08-10T03:43:53.761Z,14.90
2022-08-10T03:46:28.618Z,14.90
2022-08-10T03:49:05.742Z,14.90
2022-08-10T03:51:40.846Z,14.90
2022-08-10T03:54:15.617Z,14.80
2022-08-10T03:56:53.377Z,14.80
2022-08-10T03:59:28.299Z,14.80
2022-08-10T04:02:43.942Z,14.90
2022-08-10T04:04:56.401Z,14.90
2022-08-10T04:07:35.588Z,15.10
2022-08-10T04:10:13.052Z,15.10
2022-08-10T04:12:50.973Z,15.20
2022-08-10T04:15:26.151Z,15.30
2022-08-10T04:18:05.908Z,15.50
2022-08-10T04:20:43.089Z,15.50
2022-08-10T04:23:19.032Z,15.70
2022-08-10T04:25:54.391Z,15.90
2022-08-10T04:28:30.937Z,16.00
2022-08-10T04:31:05.125Z,16.20
2022-08-10T04:33:40.354Z,16.40
2022-08-10T04:36:14.437Z,16.60
2022-08-10T04:38:49.496Z,16.70
2022-08-10T04:41:25.066Z,16.90
2022-08-10T04:44:02.384Z,17.00
2022-08-10T04:46:55.499Z,17.20
2022-08-10T04:49:54.255Z,17.40
2022-08-10T04:52:27.373Z,17.60
2022-08-10T04:55:02.355Z,17.80
2022-08-10T04:57:36.600Z,18.10
2022-08-10T05:00:19.325Z,18.40
2022-08-10T05:02:54.769Z,18.70
2022-08-10T05:05:29.366Z,19.00
2022-08-10T05:08:04.646Z,19.10
2022-08-10T05:10:39.965Z,19.40
2022-08-10T05:13:14.599Z,19.70
2022-08-10T05:15:53.855Z,19.80
2022-08-10T05:18:28.923Z,20.00
2022-08-10T05:21:03.181Z,20.20
2022-08-10T05:23:37.875Z,20.40
2022-08-10T05:26:12.408Z,20.60
2022-08-10T05:28:46.643Z,20.80
2022-08-10T05:31:24.800Z,20.90
2022-08-10T05:34:00.109Z,21.10
2022-08-10T05:36:34.882Z,21.20
2022-08-10T05:39:09.487Z,21.40
2022-08-10T05:41:47.747Z,21.40
2022-08-10T05:44:24.677Z,21.50
2022-08-10T05:47:02.710Z,21.60
2022-08-10T05:49:37.866Z,21.70
2022-08-10T05:52:15.312Z,21.90
2022-08-10T05:54:50.496Z,22.00
2022-08-10T05:57:25.180Z,22.20
2022-08-10T06:00:31.038Z,22.40
2022-08-10T06:03:02.718Z,22.60
2022-08-10T06:05:38.667Z,22.80
2022-08-10T06:08:18.252Z,22.90
2022-08-10T06:12:23.599Z,23.10
2022-08-10T06:14:13.724Z,23.20
2022-08-10T06:16:51.845Z,23.40
2022-08-10T06:19:32.304Z,23.50
2022-08-10T06:22:09.325Z,23.70
2022-08-10T06:25:12.288Z,23.90
2022-08-10T06:27:38.837Z,24.10
2022-08-10T06:30:20.028Z,24.30
2022-08-10T06:32:56.118Z,24.40
2022-08-10T06:35:35.550Z,24.60
2022-08-10T06:38:12.970Z,24.70
2022-08-10T06:40:48.690Z,24.90
2022-08-10T06:43:23.968Z,25.20
2022-08-10T06:46:06.802Z,25.40
2022-08-10T06:48:44.965Z,25.70
2022-08-10T06:51:29.358Z,25.80
2022-08-10T06:54:04.698Z,26.00
2022-08-10T06:56:55.839Z,26.20
2022-08-10T06:59:36.861Z,26.40
2022-08-10T07:02:12.248Z,26.50
2022-08-10T07:04:47.941Z,26.60
2022-08-10T07:07:27.257Z,26.70
2022-08-10T07:10:03.769Z,26.90
2022-08-10T07:12:42.203Z,26.90
2022-08-10T07:15:17.671Z,27.10
2022-08-10T07:17:52.016Z,27.20
2022-08-10T07:20:27.190Z,27.60
2022-08-10T07:23:55.896Z,27.80
2022-08-10T07:25:59.382Z,27.80
2022-08-10T07:28:33.628Z,27.90
2022-08-10T07:31:29.586Z,27.90
2022-08-10T07:34:06.803Z,28.00
2022-08-10T07:36:40.768Z,28.20
2022-08-10T07:39:18.046Z,28.30
2022-08-10T07:42:13.284Z,28.30
2022-08-10T07:44:48.510Z,28.40
2022-08-10T07:47:52.888Z,28.50
2022-08-10T07:50:22.546Z,28.50
2022-08-10T07:52:58.793Z,28.60
2022-08-10T07:56:04.329Z,28.60
2022-08-10T07:58:32.295Z,28.60
2022-08-10T08:01:07.440Z,28.50
2022-08-10T08:03:43.011Z,28.80
2022-08-10T08:06:18.113Z,28.80
2022-08-10T08:08:52.168Z,28.90
2022-08-10T08:11:29.177Z,29.00
2022-08-10T08:14:03.088Z,29.20
2022-08-10T08:16:38.486Z,29.30
2022-08-10T08:19:37.596Z,29.40
2022-08-10T08:24:30.563Z,29.40
2022-08-10T08:25:02.740Z,29.60
2022-08-10T08:27:41.141Z,29.60
2022-08-10T08:30:27.764Z,29.50
2022-08-10T08:33:03.216Z,29.50
2022-08-10T08:35:37.856Z,29.60
2022-08-10T08:38:31.551Z,29.80
2022-08-10T08:41:11.155Z,30.00
2022-08-10T08:43:57.035Z,30.10
2022-08-10T08:46:34.270Z,30.30
2022-08-10T08:50:07.929Z,30.20
2022-08-10T08:52:42.982Z,30.20
2022-08-10T08:56:04.292Z,30.00
2022-08-10T08:58:33.733Z,30.10
2022-08-10T09:01:21.732Z,30.20
2022-08-10T09:04:19.841Z,30.30
2022-08-10T09:07:59.404Z,30.30
2022-08-10T09:10:08.722Z,30.50
2022-08-10T09:12:48.477Z,30.50
2022-08-10T09:15:39.712Z,30.80
2022-08-10T09:18:23.013Z,31.00
2022-08-10T09:21:04.444Z,31.10
2022-08-10T09:24:01.510Z,31.10
2022-08-10T09:26:39.618Z,31.20
2022-08-10T09:29:18.499Z,31.20
2022-08-10T09:36:16.276Z,31.00
2022-08-10T09:36:20.490Z,30.90
2022-08-10T09:38:09.182Z,31.00
2022-08-10T09:40:59.695Z,31.00
2022-08-10T09:43:48.016Z,31.00
2022-08-10T09:46:36.169Z,31.00
2022-08-10T09:49:25.063Z,31.00
2022-08-10T09:52:13.555Z,30.90
2022-08-10T09:54:57.612Z,30.90
2022-08-10T09:57:44.876Z,30.80
2022-08-10T10:00:22.910Z,30.80
2022-08-10T10:03:06.895Z,30.80
2022-08-10T10:05:52.256Z,30.80
2022-08-10T10:08:33.478Z,30.80
2022-08-10T10:11:13.901Z,30.80
2022-08-10T10:14:04.400Z,30.70
2022-08-10T10:16:49.319Z,30.60
2022-08-10T10:19:30.738Z,30.60
2022-08-10T10:22:17.435Z,30.60
2022-08-10T10:24:55.998Z,30.60
2022-08-10T10:27:38.148Z,30.60
2022-08-10T10:30:14.419Z,30.80
2022-08-10T10:32:58.360Z,30.90
2022-08-10T10:35:38.515Z,30.90
2022-08-10T10:38:15.931Z,30.90
2022-08-10T10:40:57.077Z,30.80
2022-08-10T10:43:42.279Z,30.70
2022-08-10T10:46:25.719Z,30.60
2022-08-10T10:49:07.477Z,30.60
2022-08-10T10:51:44.520Z,30.70
2022-08-10T10:54:22.863Z,30.60
2022-08-10T10:57:04.741Z,30.40
2022-08-10T10:59:55.817Z,30.30
2022-08-10T11:02:46.671Z,30.30
2022-08-10T11:05:31.013Z,30.10
2022-08-10T11:08:06.938Z,30.00
2022-08-10T11:10:47.225Z,29.90
2022-08-10T11:14:25.727Z,29.90
2022-08-10T11:16:33.049Z,29.90
2022-08-10T11:19:16.449Z,29.90
2022-08-10T11:22:01.045Z,29.90
2022-08-10T11:24:46.921Z,29.80
2022-08-10T11:27:32.858Z,29.70
2022-08-10T11:30:14.711Z,29.70
2022-08-10T11:33:07.565Z,29.70
2022-08-10T11:35:48.613Z,29.80
2022-08-10T11:38:36.878Z,29.80
2022-08-10T11:42:09.983Z,29.60
2022-08-10T11:44:17.366Z,29.50
2022-08-10T11:46:59.832Z,29.30
2022-08-10T11:49:36.243Z,29.10
2022-08-10T11:52:13.800Z,28.80
2022-08-10T11:54:53.618Z,28.70
2022-08-10T11:57:54.458Z,28.70
2022-08-10T12:00:24.321Z,28.70
2022-08-10T12:03:04.508Z,28.80
2022-08-10T12:05:52.632Z,28.70
2022-08-10T12:10:07.420Z,28.80
2022-08-10T12:11:29.972Z,28.80
2022-08-10T12:14:20.686Z,28.80
2022-08-10T12:17:01.566Z,28.70
2022-08-10T12:19:59.281Z,28.70
2022-08-10T12:22:42.929Z,28.60
2022-08-10T12:25:56.797Z,28.70
2022-08-10T12:28:21.873Z,28.80
2022-08-10T12:31:18.139Z,28.80
2022-08-10T12:34:02.061Z,28.80
2022-08-10T12:36:43.463Z,28.80
2022-08-10T12:39:20.176Z,28.80
2022-08-10T12:42:00.187Z,28.80
2022-08-10T12:44:42.095Z,28.80
2022-08-10T12:47:22.821Z,28.70
2022-08-10T12:50:29.474Z,28.70
2022-08-10T12:53:04.944Z,28.60
2022-08-10T12:55:48.172Z,28.50
2022-08-10T12:58:58.191Z,28.60
2022-08-10T13:01:17.934Z,28.50
2022-08-10T13:04:23.447Z,28.30
2022-08-10T13:06:52.945Z,28.40
2022-08-10T13:09:30.559Z,28.40
2022-08-10T13:12:39.234Z,28.30
2022-08-10T13:15:25.296Z,28.30
2022-08-10T13:18:03.065Z,28.30
2022-08-10T13:20:38.992Z,28.30
2022-08-10T13:23:16.092Z,28.20
2022-08-10T13:25:57.246Z,28.10
2022-08-10T13:28:45.380Z,28.00
2022-08-10T13:32:04.037Z,27.70
2022-08-10T13:34:43.748Z,27.60
2022-08-10T13:37:21.599Z,27.40
2022-08-10T13:40:00.671Z,27.40
2022-08-10T13:42:40.409Z,27.30
2022-08-10T13:45:18.738Z,27.30
2022-08-10T13:47:57.132Z,27.30
2022-08-10T13:50:33.499Z,27.30
2022-08-10T13:53:15.272Z,27.40
2022-08-10T13:55:55.148Z,27.40
2022-08-10T13:58:36.368Z,27.40
2022-08-10T14:01:16.026Z,27.50
2022-08-10T14:03:51.535Z,27.50
2022-08-10T14:06:29.470Z,27.50
2022-08-10T14:09:06.136Z,27.50
2022-08-10T14:11:42.818Z,27.50
2022-08-10T14:14:21.872Z,27.40
2022-08-10T14:16:57.219Z,27.40
2022-08-10T14:19:34.063Z,27.40
2022-08-10T14:22:11.514Z,27.40
2022-08-10T14:24:49.568Z,27.40
2022-08-10T14:28:02.631Z,27.40
2022-08-10T14:30:43.565Z,27.50
2022-08-10T14:33:18.004Z,27.40
2022-08-10T14:36:19.683Z,27.40
2022-08-10T14:38:48.348Z,27.30
2022-08-10T14:42:03.074Z,27.30
2022-08-10T14:44:23.142Z,27.30
2022-08-10T14:47:42.303Z,27.30
2022-08-10T14:50:01.408Z,27.30
2022-08-10T14:52:39.939Z,27.30
2022-08-10T14:55:26.014Z,27.30
2022-08-10T14:58:19.868Z,27.30
2022-08-10T15:00:59.003Z,27.30
2022-08-10T15:04:00.931Z,27.30
2022-08-10T15:06:35.267Z,27.40
2022-08-10T15:09:12.597Z,27.40
2022-08-10T15:12:12.891Z,27.40
2022-08-10T15:14:51.727Z,27.30
2022-08-10T15:17:29.540Z,27.20
2022-08-10T15:20:26.528Z,27.10
2022-08-10T15:23:03.277Z,27.10
2022-08-10T15:25:40.403Z,27.10
2022-08-10T15:29:24.197Z,27.10
2022-08-10T15:31:31.649Z,27.00
2022-08-10T15:34:19.899Z,26.90
2022-08-10T15:37:39.502Z,26.80
2022-08-10T15:40:22.368Z,26.80
2022-08-10T15:43:05.521Z,26.80
2022-08-10T15:46:02.513Z,26.70
2022-08-10T15:48:44.023Z,26.70
2022-08-10T15:51:33.760Z,26.70
2022-08-10T15:54:33.426Z,26.70
2022-08-10T15:57:11.869Z,26.60
2022-08-10T15:59:48.561Z,26.50
2022-08-10T16:02:29.679Z,26.60
2022-08-10T16:05:08.157Z,26.60
2022-08-10T16:07:49.185Z,26.60
2022-08-10T16:10:30.721Z,26.50
2022-08-10T16:13:50.447Z,26.50
2022-08-10T16:16:07.704Z,26.50
2022-08-10T16:18:44.288Z,26.30
2022-08-10T16:21:19.900Z,26.30
2022-08-10T16:24:11.383Z,26.20
2022-08-10T16:26:54.401Z,26.30
2022-08-10T16:29:29.442Z,26.20
2022-08-10T16:32:05.763Z,26.20
2022-08-10T16:34:41.611Z,26.20
2022-08-10T16:37:17.511Z,26.20
2022-08-10T16:39:58.782Z,26.10
2022-08-10T16:42:43.064Z,26.10
2022-08-10T16:45:22.419Z,26.00
2022-08-10T16:47:56.850Z,26.00
2022-08-10T16:50:36.769Z,25.90
2022-08-10T16:53:14.324Z,25.90
2022-08-10T16:55:50.989Z,25.90
2022-08-10T16:58:30.825Z,25.80
2022-08-10T17:01:07.590Z,25.80
2022-08-10T17:04:07.862Z,25.80
2022-08-10T17:06:41.179Z,25.70
2022-08-10T17:09:19.381Z,25.70
2022-08-10T17:11:55.636Z,25.70
2022-08-10T17:14:34.047Z,25.70
2022-08-10T17:17:15.075Z,25.70
2022-08-10T17:19:50.449Z,25.70
2022-08-10T17:22:24.866Z,25.70
2022-08-10T17:25:05.362Z,25.70
2022-08-10T17:28:20.159Z,25.60
2022-08-10T17:30:57.407Z,25.60
2022-08-10T17:33:32.861Z,25.60
2022-08-10T17:36:10.802Z,25.50
2022-08-10T17:38:49.159Z,25.50
2022-08-10T17:41:26.897Z,25.40
2022-08-10T17:44:03.537Z,25.40
2022-08-10T17:46:44.100Z,25.40
2022-08-10T17:49:19.066Z,25.30
2022-08-10T17:51:55.547Z,25.20
2022-08-10T17:54:31.755Z,25.20
2022-08-10T17:57:22.221Z,25.10
2022-08-10T17:59:56.479Z,25.10
2022-08-10T18:02:34.045Z,25.00
2022-08-10T18:05:08.963Z,24.90
2022-08-10T18:07:47.821Z,24.80
2022-08-10T18:10:23.949Z,24.80
2022-08-10T18:12:59.430Z,24.80
2022-08-10T18:15:38.346Z,24.60
2022-08-10T18:18:23.583Z,24.60
2022-08-10T18:21:07.734Z,24.60
2022-08-10T18:23:44.170Z,24.50
2022-08-10T18:26:39.906Z,24.50
2022-08-10T18:29:18.762Z,24.40
2022-08-10T18:31:59.246Z,24.30
2022-08-10T18:34:37.201Z,24.20
2022-08-10T18:37:15.800Z,24.10
2022-08-10T18:39:52.554Z,24.10
2022-08-10T18:42:30.963Z,24.00
2022-08-10T18:45:11.014Z,24.00
2022-08-10T18:47:58.998Z,23.90
2022-08-10T18:50:39.612Z,23.90
2022-08-10T18:53:17.373Z,23.80
2022-08-10T18:56:10.049Z,23.70
2022-08-10T18:58:53.112Z,23.70
2022-08-10T19:01:45.304Z,23.60
2022-08-10T19:04:47.421Z,23.50
2022-08-10T19:07:19.679Z,23.40
2022-08-10T19:10:00.145Z,23.30
2022-08-10T19:12:45.069Z,23.20
2022-08-10T19:15:28.063Z,23.10
2022-08-10T19:18:10.157Z,23.00
2022-08-10T19:20:47.985Z,23.00
2022-08-10T19:23:43.696Z,22.90
2022-08-10T19:26:43.192Z,22.80
2022-08-10T19:30:07.892Z,22.70
2022-08-10T19:32:34.979Z,22.60
2022-08-10T19:35:12.479Z,22.40
2022-08-10T19:38:00.413Z,22.40
2022-08-10T19:40:44.329Z,22.20
2022-08-10T19:43:59.273Z,22.00
2022-08-10T19:46:28.396Z,21.90
2022-08-10T19:49:06.626Z,21.80
2022-08-10T19:51:58.707Z,21.70
2022-08-10T19:54:35.688Z,21.60
2022-08-10T19:57:14.172Z,21.40
2022-08-10T20:00:17.660Z,21.30
2022-08-10T20:03:08.108Z,21.30
2022-08-10T20:06:19.446Z,21.20
2022-08-10T20:08:54.053Z,21.10
2022-08-10T20:11:45.987Z,21.10
2022-08-10T20:14:23.599Z,21.00
2022-08-10T20:17:05.982Z,20.90
2022-08-10T20:19:53.632Z,20.90
2022-08-10T20:22:31.048Z,20.90
2022-08-10T20:25:07.255Z,20.80
2022-08-10T20:28:00.649Z,20.80
2022-08-10T20:30:37.731Z,20.70
2022-08-10T20:33:19.037Z,20.60
2022-08-10T20:35:55.624Z,20.60
2022-08-10T20:38:34.224Z,20.60
2022-08-10T20:41:18.380Z,20.50
2022-08-10T20:43:51.640Z,20.50
2022-08-10T20:46:28.912Z,20.50
2022-08-10T20:49:11.391Z,20.40
2022-08-10T20:51:58.777Z,20.40
2022-08-10T20:54:37.425Z,20.30
2022-08-10T20:58:03.853Z,20.40
2022-08-10T21:00:33.451Z,20.30
2022-08-10T21:03:09.170Z,20.20
2022-08-10T21:06:02.259Z,20.20
2022-08-10T21:08:48.284Z,20.20
2022-08-10T21:11:30.826Z,20.10
2022-08-10T21:14:15.258Z,20.10
2022-08-10T21:16:59.497Z,20.10
2022-08-10T21:19:32.821Z,20.10
2022-08-10T21:22:15.886Z,20.10
2022-08-10T21:24:53.272Z,20.00
2022-08-10T21:27:34.318Z,20.00
2022-08-10T21:30:08.559Z,19.90
2022-08-10T21:32:50.952Z,19.90
2022-08-10T21:35:36.617Z,19.80
2022-08-10T21:38:29.181Z,19.80
2022-08-10T21:41:17.507Z,19.70
2022-08-10T21:44:10.796Z,19.70
2022-08-10T21:47:01.677Z,19.60
2022-08-10T21:49:53.313Z,19.60
2022-08-10T21:52:41.427Z,19.40
2022-08-10T21:55:57.954Z,19.40
2022-08-10T21:58:49.184Z,19.40
2022-08-10T22:01:42.696Z,19.30
2022-08-10T22:04:30.118Z,19.20
2022-08-10T22:07:18.413Z,19.30
2022-08-10T22:10:07.122Z,19.20
2022-08-10T22:12:58.755Z,19.20
2022-08-10T22:16:10.056Z,19.20
2022-08-10T22:19:02.365Z,19.10
2022-08-10T22:21:45.059Z,19.10
2022-08-10T22:24:37.626Z,19.00
2022-08-10T22:27:45.912Z,19.00
2022-08-10T22:30:39.692Z,19.00
2022-08-10T22:33:33.745Z,19.00
2022-08-10T22:36:21.280Z,18.90
2022-08-10T22:39:13.463Z,18.80
2022-08-10T22:42:04.249Z,18.80
2022-08-10T22:44:52.253Z,18.70
2022-08-10T22:47:47.358Z,18.80
2022-08-10T22:50:22.573Z,18.70
2022-08-10T22:53:05.892Z,18.70
2022-08-10T22:55:53.863Z,18.70
2022-08-10T22:58:41.643Z,18.60
2022-08-10T23:01:40.684Z,18.70
2022-08-10T23:04:26.245Z,18.60
2022-08-10T23:07:13.655Z,18.60
2022-08-10T23:09:49.207Z,18.60
2022-08-10T23:12:26.464Z,18.50
2022-08-10T23:15:13.352Z,18.60
2022-08-10T23:18:04.925Z,18.50
2022-08-10T23:20:43.674Z,18.50
2022-08-10T23:23:23.356Z,18.40
2022-08-10T23:25:59.528Z,18.40
2022-08-10T23:28:39.096Z,18.40
2022-08-10T23:31:58.347Z,18.30
2022-08-10T23:34:27.065Z,18.30
2022-08-10T23:37:04.732Z,18.20
2022-08-10T23:39:40.403Z,18.10
2022-08-10T23:42:18.397Z,18.00
2022-08-10T23:44:53.960Z,18.00
2022-08-10T23:47:29.627Z,18.00
2022-08-10T23:50:07.755Z,17.90
2022-08-10T23:52:51.718Z,17.90
2022-08-10T23:55:26.999Z,17.90
2022-08-10T23:58:05.403Z,17.80
